sensor_id;sensor_type;location;lat;lon;timestamp;P1;durP1;ratioP1;P2;durP2;ratioP2
59024;SDS011;44806;48.008;13.666;2022-07-17T00:02:14;4.85;;;1.67;;
59024;SDS011;44806;48.008;13.666;2022-07-17T00:04:41;5.32;;;2.03;;
59024;SDS011;44806;48.008;13.666;2022-07-17T00:07:10;8.63;;;1.67;;
59024;SDS011;44806;48.008;13.666;2022-07-17T00:09:37;4.43;;;1.73;;
59024;SDS011;44806;48.008;13.666;2022-07-17T00:12:04;4.07;;;1.70;;
59024;SDS011;44806;48.008;13.666;2022-07-17T00:14:32;4.78;;;2.00;;
59024;SDS011;44806;48.008;13.666;2022-07-17T00:16:59;5.20;;;2.00;;
59024;SDS011;44806;48.008;13.666;2022-07-17T00:19:26;5.45;;;2.17;;
59024;SDS011;44806;48.008;13.666;2022-07-17T00:21:53;6.55;;;2.28;;
59024;SDS011;44806;48.008;13.666;2022-07-17T00:24:22;5.45;;;1.92;;
59024;SDS011;44806;48.008;13.666;2022-07-17T00:26:50;5.45;;;2.30;;
59024;SDS011;44806;48.008;13.666;2022-07-17T00:29:17;5.53;;;2.38;;
59024;SDS011;44806;48.008;13.666;2022-07-17T00:31:45;4.13;;;1.90;;
59024;SDS011;44806;48.008;13.666;2022-07-17T00:34:12;6.88;;;2.10;;
59024;SDS011;44806;48.008;13.666;2022-07-17T00:36:40;5.05;;;2.10;;
59024;SDS011;44806;48.008;13.666;2022-07-17T00:39:07;3.92;;;2.00;;
59024;SDS011;44806;48.008;13.666;2022-07-17T00:41:36;4.85;;;1.60;;
59024;SDS011;44806;48.008;13.666;2022-07-17T00:44:04;6.93;;;1.80;;
59024;SDS011;44806;48.008;13.666;2022-07-17T00:46:31;4.22;;;1.80;;
59024;SDS011;44806;48.008;13.666;2022-07-17T00:48:58;6.22;;;2.03;;
59024;SDS011;44806;48.008;13.666;2022-07-17T00:51:25;4.45;;;1.83;;
59024;SDS011;44806;48.008;13.666;2022-07-17T00:53:52;3.45;;;1.50;;
59024;SDS011;44806;48.008;13.666;2022-07-17T00:56:23;5.53;;;1.70;;
59024;SDS011;44806;48.008;13.666;2022-07-17T00:58:54;4.20;;;1.70;;
59024;SDS011;44806;48.008;13.666;2022-07-17T01:01:22;6.07;;;1.75;;
59024;SDS011;44806;48.008;13.666;2022-07-17T01:03:49;3.80;;;1.70;;
59024;SDS011;44806;48.008;13.666;2022-07-17T01:06:16;4.93;;;1.65;;
59024;SDS011;44806;48.008;13.666;2022-07-17T01:08:43;5.25;;;2.00;;
59024;SDS011;44806;48.008;13.666;2022-07-17T01:11:10;6.95;;;1.83;;
59024;SDS011;44806;48.008;13.666;2022-07-17T01:13:37;4.45;;;1.80;;
59024;SDS011;44806;48.008;13.666;2022-07-17T01:16:06;3.92;;;1.67;;
59024;SDS011;44806;48.008;13.666;2022-07-17T01:18:33;3.88;;;1.63;;
59024;SDS011;44806;48.008;13.666;2022-07-17T01:21:04;4.65;;;1.75;;
59024;SDS011;44806;48.008;13.666;2022-07-17T01:23:31;4.85;;;2.10;;
59024;SDS011;44806;48.008;13.666;2022-07-17T01:25:59;6.00;;;1.80;;
59024;SDS011;44806;48.008;13.666;2022-07-17T01:28:26;4.88;;;1.90;;
59024;SDS011;44806;48.008;13.666;2022-07-17T01:30:54;4.43;;;1.85;;
59024;SDS011;44806;48.008;13.666;2022-07-17T01:33:22;7.03;;;2.35;;
59024;SDS011;44806;48.008;13.666;2022-07-17T01:35:49;4.63;;;2.25;;
59024;SDS011;44806;48.008;13.666;2022-07-17T01:38:17;8.00;;;2.15;;
59024;SDS011;44806;48.008;13.666;2022-07-17T01:40:45;4.82;;;2.17;;
59024;SDS011;44806;48.008;13.666;2022-07-17T01:43:12;4.75;;;2.20;;
59024;SDS011;44806;48.008;13.666;2022-07-17T01:45:39;5.05;;;1.95;;
59024;SDS011;44806;48.008;13.666;2022-07-17T01:48:06;6.00;;;2.05;;
59024;SDS011;44806;48.008;13.666;2022-07-17T01:50:34;5.78;;;1.98;;
59024;SDS011;44806;48.008;13.666;2022-07-17T01:53:01;4.85;;;2.13;;
59024;SDS011;44806;48.008;13.666;2022-07-17T01:55:31;4.60;;;2.30;;
59024;SDS011;44806;48.008;13.666;2022-07-17T01:57:58;4.40;;;1.92;;
59024;SDS011;44806;48.008;13.666;2022-07-17T02:00:28;6.45;;;1.98;;
59024;SDS011;44806;48.008;13.666;2022-07-17T02:02:55;9.40;;;2.10;;
59024;SDS011;44806;48.008;13.666;2022-07-17T02:05:22;9.45;;;2.28;;
59024;SDS011;44806;48.008;13.666;2022-07-17T02:07:50;5.80;;;2.00;;
59024;SDS011;44806;48.008;13.666;2022-07-17T02:10:17;4.32;;;1.80;;
59024;SDS011;44806;48.008;13.666;2022-07-17T02:12:45;4.88;;;1.95;;
59024;SDS011;44806;48.008;13.666;2022-07-17T02:15:12;7.70;;;2.40;;
59024;SDS011;44806;48.008;13.666;2022-07-17T02:17:40;5.53;;;2.10;;
59024;SDS011;44806;48.008;13.666;2022-07-17T02:20:08;6.32;;;1.92;;
59024;SDS011;44806;48.008;13.666;2022-07-17T02:22:36;3.97;;;1.85;;
59024;SDS011;44806;48.008;13.666;2022-07-17T02:25:04;3.88;;;1.73;;
59024;SDS011;44806;48.008;13.666;2022-07-17T02:27:32;4.50;;;1.95;;
59024;SDS011;44806;48.008;13.666;2022-07-17T02:30:02;6.82;;;2.30;;
59024;SDS011;44806;48.008;13.666;2022-07-17T02:32:30;4.32;;;1.88;;
59024;SDS011;44806;48.008;13.666;2022-07-17T02:34:57;4.47;;;2.13;;
59024;SDS011;44806;48.008;13.666;2022-07-17T02:37:24;10.77;;;2.42;;
59024;SDS011;44806;48.008;13.666;2022-07-17T02:39:51;6.65;;;2.40;;
59024;SDS011;44806;48.008;13.666;2022-07-17T02:42:19;4.93;;;2.33;;
59024;SDS011;44806;48.008;13.666;2022-07-17T02:44:46;6.05;;;2.00;;
59024;SDS011;44806;48.008;13.666;2022-07-17T02:47:19;4.97;;;2.58;;
59024;SDS011;44806;48.008;13.666;2022-07-17T02:49:48;4.75;;;1.95;;
59024;SDS011;44806;48.008;13.666;2022-07-17T02:52:15;4.95;;;2.30;;
59024;SDS011;44806;48.008;13.666;2022-07-17T02:54:42;6.03;;;2.28;;
59024;SDS011;44806;48.008;13.666;2022-07-17T02:57:09;5.00;;;2.20;;
59024;SDS011;44806;48.008;13.666;2022-07-17T02:59:37;7.38;;;2.95;;
59024;SDS011;44806;48.008;13.666;2022-07-17T03:02:05;5.22;;;2.78;;
59024;SDS011;44806;48.008;13.666;2022-07-17T03:04:33;6.22;;;2.03;;
59024;SDS011;44806;48.008;13.666;2022-07-17T03:07:00;5.25;;;2.40;;
59024;SDS011;44806;48.008;13.666;2022-07-17T03:09:27;4.03;;;1.67;;
59024;SDS011;44806;48.008;13.666;2022-07-17T03:11:55;3.13;;;1.20;;
59024;SDS011;44806;48.008;13.666;2022-07-17T03:14:22;3.00;;;1.17;;
59024;SDS011;44806;48.008;13.666;2022-07-17T03:16:49;4.85;;;1.98;;
59024;SDS011;44806;48.008;13.666;2022-07-17T03:19:16;4.55;;;1.77;;
59024;SDS011;44806;48.008;13.666;2022-07-17T03:21:45;4.32;;;2.05;;
59024;SDS011;44806;48.008;13.666;2022-07-17T03:24:12;4.93;;;1.60;;
59024;SDS011;44806;48.008;13.666;2022-07-17T03:26:39;7.07;;;1.85;;
59024;SDS011;44806;48.008;13.666;2022-07-17T03:29:06;4.68;;;1.90;;
59024;SDS011;44806;48.008;13.666;2022-07-17T03:31:34;4.72;;;2.17;;
59024;SDS011;44806;48.008;13.666;2022-07-17T03:34:01;3.63;;;1.52;;
59024;SDS011;44806;48.008;13.666;2022-07-17T03:36:28;5.30;;;2.00;;
59024;SDS011;44806;48.008;13.666;2022-07-17T03:38:56;4.32;;;1.67;;
59024;SDS011;44806;48.008;13.666;2022-07-17T03:41:23;3.10;;;1.23;;
59024;SDS011;44806;48.008;13.666;2022-07-17T03:43:51;4.55;;;2.10;;
59024;SDS011;44806;48.008;13.666;2022-07-17T03:46:18;4.93;;;1.67;;
59024;SDS011;44806;48.008;13.666;2022-07-17T03:48:45;5.32;;;1.98;;
59024;SDS011;44806;48.008;13.666;2022-07-17T03:51:12;4.00;;;1.48;;
59024;SDS011;44806;48.008;13.666;2022-07-17T03:53:41;4.43;;;1.63;;
59024;SDS011;44806;48.008;13.666;2022-07-17T03:56:09;2.83;;;1.40;;
59024;SDS011;44806;48.008;13.666;2022-07-17T03:58:37;3.67;;;1.83;;
59024;SDS011;44806;48.008;13.666;2022-07-17T04:01:04;4.38;;;2.08;;
59024;SDS011;44806;48.008;13.666;2022-07-17T04:03:31;4.88;;;1.75;;
59024;SDS011;44806;48.008;13.666;2022-07-17T04:05:58;4.18;;;1.40;;
59024;SDS011;44806;48.008;13.666;2022-07-17T04:08:25;4.65;;;1.42;;
59024;SDS011;44806;48.008;13.666;2022-07-17T04:10:53;3.95;;;1.30;;
59024;SDS011;44806;48.008;13.666;2022-07-17T04:13:21;5.30;;;1.52;;
59024;SDS011;44806;48.008;13.666;2022-07-17T04:15:48;5.20;;;1.60;;
59024;SDS011;44806;48.008;13.666;2022-07-17T04:18:18;3.97;;;1.70;;
59024;SDS011;44806;48.008;13.666;2022-07-17T04:20:45;4.75;;;2.10;;
59024;SDS011;44806;48.008;13.666;2022-07-17T04:23:13;4.70;;;2.00;;
59024;SDS011;44806;48.008;13.666;2022-07-17T04:25:40;5.18;;;1.67;;
59024;SDS011;44806;48.008;13.666;2022-07-17T04:28:07;4.82;;;1.60;;
59024;SDS011;44806;48.008;13.666;2022-07-17T04:30:36;4.40;;;1.83;;
59024;SDS011;44806;48.008;13.666;2022-07-17T04:33:04;5.38;;;2.28;;
59024;SDS011;44806;48.008;13.666;2022-07-17T04:35:31;6.22;;;2.00;;
59024;SDS011;44806;48.008;13.666;2022-07-17T04:37:58;4.53;;;1.80;;
59024;SDS011;44806;48.008;13.666;2022-07-17T04:40:26;2.72;;;0.95;;
59024;SDS011;44806;48.008;13.666;2022-07-17T04:42:53;4.18;;;1.88;;
59024;SDS011;44806;48.008;13.666;2022-07-17T04:45:20;3.67;;;1.38;;
59024;SDS011;44806;48.008;13.666;2022-07-17T04:47:49;5.45;;;2.00;;
59024;SDS011;44806;48.008;13.666;2022-07-17T04:50:16;5.55;;;2.05;;
59024;SDS011;44806;48.008;13.666;2022-07-17T04:52:43;4.80;;;2.03;;
59024;SDS011;44806;48.008;13.666;2022-07-17T04:55:11;3.35;;;1.48;;
59024;SDS011;44806;48.008;13.666;2022-07-17T04:57:38;3.65;;;1.70;;
59024;SDS011;44806;48.008;13.666;2022-07-17T05:00:06;5.55;;;2.25;;
59024;SDS011;44806;48.008;13.666;2022-07-17T05:02:34;5.18;;;1.92;;
59024;SDS011;44806;48.008;13.666;2022-07-17T05:05:03;5.68;;;2.03;;
59024;SDS011;44806;48.008;13.666;2022-07-17T05:07:31;6.68;;;2.88;;
59024;SDS011;44806;48.008;13.666;2022-07-17T05:09:58;4.93;;;1.55;;
59024;SDS011;44806;48.008;13.666;2022-07-17T05:12:26;4.57;;;1.90;;
59024;SDS011;44806;48.008;13.666;2022-07-17T05:14:53;5.10;;;1.95;;
59024;SDS011;44806;48.008;13.666;2022-07-17T05:17:20;4.57;;;2.10;;
59024;SDS011;44806;48.008;13.666;2022-07-17T05:19:47;3.78;;;1.70;;
59024;SDS011;44806;48.008;13.666;2022-07-17T05:22:15;6.53;;;1.75;;
59024;SDS011;44806;48.008;13.666;2022-07-17T05:24:43;6.03;;;2.42;;
59024;SDS011;44806;48.008;13.666;2022-07-17T05:27:10;3.88;;;1.60;;
59024;SDS011;44806;48.008;13.666;2022-07-17T05:29:37;5.03;;;1.95;;
59024;SDS011;44806;48.008;13.666;2022-07-17T05:32:04;5.57;;;2.65;;
59024;SDS011;44806;48.008;13.666;2022-07-17T05:34:31;6.95;;;2.58;;
59024;SDS011;44806;48.008;13.666;2022-07-17T05:36:58;4.60;;;1.75;;
59024;SDS011;44806;48.008;13.666;2022-07-17T05:39:27;7.03;;;2.38;;
59024;SDS011;44806;48.008;13.666;2022-07-17T05:41:54;4.82;;;2.15;;
59024;SDS011;44806;48.008;13.666;2022-07-17T05:44:21;3.55;;;1.75;;
59024;SDS011;44806;48.008;13.666;2022-07-17T05:46:51;5.13;;;2.30;;
59024;SDS011;44806;48.008;13.666;2022-07-17T05:49:18;4.85;;;2.28;;
59024;SDS011;44806;48.008;13.666;2022-07-17T05:51:45;5.43;;;1.92;;
59024;SDS011;44806;48.008;13.666;2022-07-17T05:54:12;7.07;;;2.47;;
59024;SDS011;44806;48.008;13.666;2022-07-17T05:56:40;4.93;;;2.33;;
59024;SDS011;44806;48.008;13.666;2022-07-17T05:59:08;7.10;;;2.58;;
59024;SDS011;44806;48.008;13.666;2022-07-17T06:01:36;5.30;;;2.40;;
59024;SDS011;44806;48.008;13.666;2022-07-17T06:04:03;6.85;;;2.58;;
59024;SDS011;44806;48.008;13.666;2022-07-17T06:06:31;4.78;;;2.50;;
59024;SDS011;44806;48.008;13.666;2022-07-17T06:08:58;5.15;;;2.50;;
59024;SDS011;44806;48.008;13.666;2022-07-17T06:11:25;4.72;;;2.25;;
59024;SDS011;44806;48.008;13.666;2022-07-17T06:13:57;5.65;;;2.45;;
59024;SDS011;44806;48.008;13.666;2022-07-17T06:16:24;5.43;;;2.22;;
59024;SDS011;44806;48.008;13.666;2022-07-17T06:18:51;5.25;;;2.35;;
59024;SDS011;44806;48.008;13.666;2022-07-17T06:21:19;7.53;;;2.30;;
59024;SDS011;44806;48.008;13.666;2022-07-17T06:23:46;4.80;;;2.20;;
59024;SDS011;44806;48.008;13.666;2022-07-17T06:26:16;4.10;;;1.90;;
59024;SDS011;44806;48.008;13.666;2022-07-17T06:28:46;4.18;;;1.80;;
59024;SDS011;44806;48.008;13.666;2022-07-17T06:31:15;4.28;;;1.85;;
59024;SDS011;44806;48.008;13.666;2022-07-17T06:33:42;6.85;;;2.00;;
59024;SDS011;44806;48.008;13.666;2022-07-17T06:36:09;4.45;;;1.70;;
59024;SDS011;44806;48.008;13.666;2022-07-17T06:38:36;4.97;;;1.80;;
59024;SDS011;44806;48.008;13.666;2022-07-17T06:41:04;3.60;;;1.73;;
59024;SDS011;44806;48.008;13.666;2022-07-17T06:43:31;4.10;;;1.83;;
59024;SDS011;44806;48.008;13.666;2022-07-17T06:45:58;8.75;;;1.80;;
59024;SDS011;44806;48.008;13.666;2022-07-17T06:48:26;5.00;;;2.00;;
59024;SDS011;44806;48.008;13.666;2022-07-17T06:50:53;4.38;;;1.95;;
59024;SDS011;44806;48.008;13.666;2022-07-17T06:53:20;3.10;;;1.40;;
59024;SDS011;44806;48.008;13.666;2022-07-17T06:55:48;4.25;;;1.88;;
59024;SDS011;44806;48.008;13.666;2022-07-17T06:58:15;3.65;;;1.50;;
59024;SDS011;44806;48.008;13.666;2022-07-17T07:00:42;4.53;;;1.90;;
59024;SDS011;44806;48.008;13.666;2022-07-17T07:03:09;4.35;;;1.70;;
59024;SDS011;44806;48.008;13.666;2022-07-17T07:05:38;6.05;;;1.60;;
59024;SDS011;44806;48.008;13.666;2022-07-17T07:08:05;4.57;;;1.88;;
59024;SDS011;44806;48.008;13.666;2022-07-17T07:10:33;4.13;;;1.75;;
59024;SDS011;44806;48.008;13.666;2022-07-17T07:13:01;3.97;;;1.45;;
59024;SDS011;44806;48.008;13.666;2022-07-17T07:15:28;4.15;;;1.80;;
59024;SDS011;44806;48.008;13.666;2022-07-17T07:17:55;4.32;;;1.73;;
59024;SDS011;44806;48.008;13.666;2022-07-17T07:20:22;5.60;;;1.65;;
59024;SDS011;44806;48.008;13.666;2022-07-17T07:22:52;5.30;;;1.92;;
59024;SDS011;44806;48.008;13.666;2022-07-17T07:25:19;3.92;;;1.80;;
59024;SDS011;44806;48.008;13.666;2022-07-17T07:27:47;5.13;;;1.52;;
59024;SDS011;44806;48.008;13.666;2022-07-17T07:30:14;5.50;;;2.00;;
59024;SDS011;44806;48.008;13.666;2022-07-17T07:32:41;4.82;;;2.22;;
59024;SDS011;44806;48.008;13.666;2022-07-17T07:35:08;4.68;;;1.70;;
59024;SDS011;44806;48.008;13.666;2022-07-17T07:37:36;4.03;;;1.73;;
59024;SDS011;44806;48.008;13.666;2022-07-17T07:40:05;4.55;;;1.73;;
59024;SDS011;44806;48.008;13.666;2022-07-17T07:42:33;6.65;;;1.85;;
59024;SDS011;44806;48.008;13.666;2022-07-17T07:45:03;4.82;;;2.50;;
59024;SDS011;44806;48.008;13.666;2022-07-17T07:47:31;3.90;;;1.90;;
59024;SDS011;44806;48.008;13.666;2022-07-17T07:49:58;4.53;;;1.92;;
59024;SDS011;44806;48.008;13.666;2022-07-17T07:52:26;5.90;;;1.88;;
59024;SDS011;44806;48.008;13.666;2022-07-17T07:54:53;4.38;;;1.80;;
59024;SDS011;44806;48.008;13.666;2022-07-17T07:57:22;4.80;;;2.15;;
59024;SDS011;44806;48.008;13.666;2022-07-17T07:59:49;4.95;;;1.98;;
59024;SDS011;44806;48.008;13.666;2022-07-17T08:02:16;3.65;;;1.95;;
59024;SDS011;44806;48.008;13.666;2022-07-17T08:04:43;3.60;;;1.73;;
59024;SDS011;44806;48.008;13.666;2022-07-17T08:07:11;4.95;;;2.40;;
59024;SDS011;44806;48.008;13.666;2022-07-17T08:09:38;4.30;;;1.92;;
59024;SDS011;44806;48.008;13.666;2022-07-17T08:12:05;5.20;;;2.13;;
59024;SDS011;44806;48.008;13.666;2022-07-17T08:14:35;4.40;;;1.88;;
59024;SDS011;44806;48.008;13.666;2022-07-17T08:17:02;3.72;;;1.60;;
59024;SDS011;44806;48.008;13.666;2022-07-17T08:19:30;4.85;;;2.20;;
59024;SDS011;44806;48.008;13.666;2022-07-17T08:21:57;5.15;;;2.00;;
59024;SDS011;44806;48.008;13.666;2022-07-17T08:24:24;5.20;;;1.77;;
59024;SDS011;44806;48.008;13.666;2022-07-17T08:26:51;4.07;;;1.80;;
59024;SDS011;44806;48.008;13.666;2022-07-17T08:29:18;5.43;;;1.98;;
59024;SDS011;44806;48.008;13.666;2022-07-17T08:31:47;4.47;;;1.60;;
59024;SDS011;44806;48.008;13.666;2022-07-17T08:34:15;3.83;;;1.80;;
59024;SDS011;44806;48.008;13.666;2022-07-17T08:36:42;5.25;;;1.90;;
59024;SDS011;44806;48.008;13.666;2022-07-17T08:39:11;3.97;;;2.03;;
59024;SDS011;44806;48.008;13.666;2022-07-17T08:41:38;4.88;;;2.00;;
59024;SDS011;44806;48.008;13.666;2022-07-17T08:44:08;3.85;;;1.80;;
59024;SDS011;44806;48.008;13.666;2022-07-17T08:46:35;4.57;;;2.00;;
59024;SDS011;44806;48.008;13.666;2022-07-17T08:49:05;4.25;;;1.92;;
59024;SDS011;44806;48.008;13.666;2022-07-17T08:51:33;5.53;;;1.75;;
59024;SDS011;44806;48.008;13.666;2022-07-17T08:54:01;4.95;;;1.77;;
59024;SDS011;44806;48.008;13.666;2022-07-17T08:56:28;3.78;;;2.05;;
59024;SDS011;44806;48.008;13.666;2022-07-17T08:58:56;6.10;;;2.20;;
59024;SDS011;44806;48.008;13.666;2022-07-17T09:01:23;5.45;;;1.83;;
59024;SDS011;44806;48.008;13.666;2022-07-17T09:03:55;4.20;;;1.92;;
59024;SDS011;44806;48.008;13.666;2022-07-17T09:06:26;4.00;;;1.88;;
59024;SDS011;44806;48.008;13.666;2022-07-17T09:09:03;5.68;;;1.90;;
59024;SDS011;44806;48.008;13.666;2022-07-17T09:11:41;5.68;;;2.13;;
59024;SDS011;44806;48.008;13.666;2022-07-17T09:14:09;4.55;;;1.90;;
59024;SDS011;44806;48.008;13.666;2022-07-17T09:16:47;5.68;;;1.90;;
59024;SDS011;44806;48.008;13.666;2022-07-17T09:19:25;4.05;;;1.85;;
59024;SDS011;44806;48.008;13.666;2022-07-17T09:22:04;6.50;;;2.00;;
59024;SDS011;44806;48.008;13.666;2022-07-17T09:24:42;6.57;;;1.80;;
59024;SDS011;44806;48.008;13.666;2022-07-17T09:27:12;6.22;;;1.90;;
59024;SDS011;44806;48.008;13.666;2022-07-17T09:29:49;4.78;;;1.75;;
59024;SDS011;44806;48.008;13.666;2022-07-17T09:32:19;3.28;;;1.60;;
59024;SDS011;44806;48.008;13.666;2022-07-17T09:34:46;5.78;;;1.90;;
59024;SDS011;44806;48.008;13.666;2022-07-17T09:37:16;7.60;;;2.10;;
59024;SDS011;44806;48.008;13.666;2022-07-17T09:39:44;3.53;;;1.73;;
59024;SDS011;44806;48.008;13.666;2022-07-17T09:42:20;4.50;;;1.80;;
59024;SDS011;44806;48.008;13.666;2022-07-17T09:44:56;4.05;;;2.17;;
59024;SDS011;44806;48.008;13.666;2022-07-17T09:47:24;4.68;;;1.90;;
59024;SDS011;44806;48.008;13.666;2022-07-17T09:49:52;4.85;;;1.90;;
59024;SDS011;44806;48.008;13.666;2022-07-17T09:52:23;3.97;;;1.88;;
59024;SDS011;44806;48.008;13.666;2022-07-17T09:54:52;4.75;;;1.80;;
59024;SDS011;44806;48.008;13.666;2022-07-17T09:57:21;6.07;;;1.70;;
59024;SDS011;44806;48.008;13.666;2022-07-17T09:59:53;5.45;;;1.70;;
59024;SDS011;44806;48.008;13.666;2022-07-17T10:02:21;3.22;;;1.70;;
59024;SDS011;44806;48.008;13.666;2022-07-17T10:04:50;4.75;;;1.65;;
59024;SDS011;44806;48.008;13.666;2022-07-17T10:07:22;4.05;;;1.60;;
59024;SDS011;44806;48.008;13.666;2022-07-17T10:09:50;4.50;;;1.75;;
59024;SDS011;44806;48.008;13.666;2022-07-17T10:12:17;4.85;;;2.03;;
59024;SDS011;44806;48.008;13.666;2022-07-17T10:14:46;3.72;;;1.60;;
59024;SDS011;44806;48.008;13.666;2022-07-17T10:17:14;6.38;;;1.75;;
59024;SDS011;44806;48.008;13.666;2022-07-17T10:19:49;4.78;;;1.50;;
59024;SDS011;44806;48.008;13.666;2022-07-17T10:22:19;3.85;;;1.60;;
59024;SDS011;44806;48.008;13.666;2022-07-17T10:24:51;4.32;;;1.52;;
59024;SDS011;44806;48.008;13.666;2022-07-17T10:27:24;3.97;;;1.70;;
59024;SDS011;44806;48.008;13.666;2022-07-17T10:30:00;3.30;;;1.50;;
59024;SDS011;44806;48.008;13.666;2022-07-17T10:32:28;3.67;;;1.63;;
59024;SDS011;44806;48.008;13.666;2022-07-17T10:34:58;4.75;;;1.60;;
59024;SDS011;44806;48.008;13.666;2022-07-17T10:37:30;3.92;;;1.60;;
59024;SDS011;44806;48.008;13.666;2022-07-17T10:40:00;3.47;;;1.50;;
59024;SDS011;44806;48.008;13.666;2022-07-17T10:42:37;5.80;;;1.60;;
59024;SDS011;44806;48.008;13.666;2022-07-17T10:45:09;4.18;;;1.70;;
59024;SDS011;44806;48.008;13.666;2022-07-17T10:50:27;4.22;;;1.52;;
59024;SDS011;44806;48.008;13.666;2022-07-17T10:53:01;3.15;;;1.45;;
59024;SDS011;44806;48.008;13.666;2022-07-17T10:55:41;2.90;;;1.40;;
59024;SDS011;44806;48.008;13.666;2022-07-17T10:58:16;4.63;;;1.42;;
59024;SDS011;44806;48.008;13.666;2022-07-17T11:03:30;2.95;;;1.40;;
59024;SDS011;44806;48.008;13.666;2022-07-17T11:06:12;4.45;;;1.60;;
59024;SDS011;44806;48.008;13.666;2022-07-17T11:08:46;7.60;;;1.75;;
59024;SDS011;44806;48.008;13.666;2022-07-17T11:11:15;3.28;;;1.45;;
59024;SDS011;44806;48.008;13.666;2022-07-17T11:13:44;3.45;;;1.48;;
59024;SDS011;44806;48.008;13.666;2022-07-17T11:16:11;3.97;;;1.52;;
59024;SDS011;44806;48.008;13.666;2022-07-17T11:18:45;2.55;;;1.30;;
59024;SDS011;44806;48.008;13.666;2022-07-17T11:21:13;3.90;;;1.30;;
59024;SDS011;44806;48.008;13.666;2022-07-17T11:23:49;3.70;;;1.58;;
59024;SDS011;44806;48.008;13.666;2022-07-17T11:26:19;3.83;;;1.40;;
59024;SDS011;44806;48.008;13.666;2022-07-17T11:28:47;4.15;;;1.58;;
59024;SDS011;44806;48.008;13.666;2022-07-17T11:31:16;3.45;;;1.50;;
59024;SDS011;44806;48.008;13.666;2022-07-17T11:33:51;4.13;;;1.38;;
59024;SDS011;44806;48.008;13.666;2022-07-17T11:36:23;3.40;;;1.13;;
59024;SDS011;44806;48.008;13.666;2022-07-17T11:38:53;4.72;;;1.55;;
59024;SDS011;44806;48.008;13.666;2022-07-17T11:41:21;3.25;;;1.33;;
59024;SDS011;44806;48.008;13.666;2022-07-17T11:43:58;3.13;;;1.50;;
59024;SDS011;44806;48.008;13.666;2022-07-17T11:46:27;3.22;;;1.40;;
59024;SDS011;44806;48.008;13.666;2022-07-17T11:48:55;3.47;;;1.40;;
59024;SDS011;44806;48.008;13.666;2022-07-17T11:51:32;4.45;;;1.63;;
59024;SDS011;44806;48.008;13.666;2022-07-17T11:54:06;4.72;;;1.52;;
59024;SDS011;44806;48.008;13.666;2022-07-17T11:56:34;4.18;;;1.70;;
59024;SDS011;44806;48.008;13.666;2022-07-17T11:59:02;2.22;;;1.20;;
59024;SDS011;44806;48.008;13.666;2022-07-17T12:01:36;3.95;;;1.48;;
59024;SDS011;44806;48.008;13.666;2022-07-17T12:04:06;2.83;;;1.25;;
59024;SDS011;44806;48.008;13.666;2022-07-17T12:06:38;3.42;;;1.40;;
59024;SDS011;44806;48.008;13.666;2022-07-17T12:09:07;2.88;;;1.40;;
59024;SDS011;44806;48.008;13.666;2022-07-17T12:11:47;4.22;;;1.50;;
59024;SDS011;44806;48.008;13.666;2022-07-17T12:14:16;3.95;;;1.40;;
59024;SDS011;44806;48.008;13.666;2022-07-17T12:16:43;3.35;;;1.30;;
59024;SDS011;44806;48.008;13.666;2022-07-17T12:19:11;3.13;;;1.20;;
59024;SDS011;44806;48.008;13.666;2022-07-17T12:21:54;5.70;;;1.38;;
59024;SDS011;44806;48.008;13.666;2022-07-17T12:24:26;4.15;;;1.20;;
59024;SDS011;44806;48.008;13.666;2022-07-17T12:26:55;2.88;;;1.50;;
59024;SDS011;44806;48.008;13.666;2022-07-17T12:29:23;4.35;;;1.30;;
59024;SDS011;44806;48.008;13.666;2022-07-17T12:32:01;3.20;;;1.30;;
59024;SDS011;44806;48.008;13.666;2022-07-17T12:34:33;2.60;;;1.23;;
59024;SDS011;44806;48.008;13.666;2022-07-17T12:37:01;3.00;;;1.30;;
59024;SDS011;44806;48.008;13.666;2022-07-17T12:39:31;3.50;;;1.30;;
59024;SDS011;44806;48.008;13.666;2022-07-17T12:41:58;4.75;;;1.35;;
59024;SDS011;44806;48.008;13.666;2022-07-17T12:44:25;2.75;;;1.20;;
59024;SDS011;44806;48.008;13.666;2022-07-17T12:46:52;2.83;;;1.20;;
59024;SDS011;44806;48.008;13.666;2022-07-17T12:49:20;3.67;;;1.38;;
59024;SDS011;44806;48.008;13.666;2022-07-17T12:51:49;4.47;;;1.30;;
59024;SDS011;44806;48.008;13.666;2022-07-17T12:54:16;2.78;;;1.10;;
59024;SDS011;44806;48.008;13.666;2022-07-17T12:56:44;2.88;;;1.13;;
59024;SDS011;44806;48.008;13.666;2022-07-17T12:59:11;3.50;;;1.27;;
59024;SDS011;44806;48.008;13.666;2022-07-17T13:01:39;4.22;;;1.23;;
59024;SDS011;44806;48.008;13.666;2022-07-17T13:04:06;2.78;;;1.30;;
59024;SDS011;44806;48.008;13.666;2022-07-17T13:06:33;3.63;;;1.30;;
59024;SDS011;44806;48.008;13.666;2022-07-17T13:09:00;3.55;;;1.23;;
59024;SDS011;44806;48.008;13.666;2022-07-17T13:11:28;3.40;;;1.30;;
59024;SDS011;44806;48.008;13.666;2022-07-17T13:13:56;2.78;;;1.20;;
59024;SDS011;44806;48.008;13.666;2022-07-17T13:16:24;3.55;;;1.20;;
59024;SDS011;44806;48.008;13.666;2022-07-17T13:18:51;3.55;;;1.08;;
59024;SDS011;44806;48.008;13.666;2022-07-17T13:21:18;3.47;;;1.30;;
59024;SDS011;44806;48.008;13.666;2022-07-17T13:23:45;3.78;;;1.10;;
59024;SDS011;44806;48.008;13.666;2022-07-17T13:26:13;3.75;;;1.42;;
59024;SDS011;44806;48.008;13.666;2022-07-17T13:28:40;4.90;;;1.27;;
59024;SDS011;44806;48.008;13.666;2022-07-17T13:31:08;2.13;;;1.00;;
59024;SDS011;44806;48.008;13.666;2022-07-17T13:33:37;4.22;;;1.17;;
59024;SDS011;44806;48.008;13.666;2022-07-17T13:36:04;4.40;;;1.20;;
59024;SDS011;44806;48.008;13.666;2022-07-17T13:38:32;2.60;;;1.17;;
59024;SDS011;44806;48.008;13.666;2022-07-17T13:41:00;2.72;;;1.40;;
59024;SDS011;44806;48.008;13.666;2022-07-17T13:43:27;2.05;;;1.05;;
59024;SDS011;44806;48.008;13.666;2022-07-17T13:45:54;3.97;;;1.05;;
59024;SDS011;44806;48.008;13.666;2022-07-17T13:48:23;5.35;;;1.33;;
59024;SDS011;44806;48.008;13.666;2022-07-17T13:50:53;2.92;;;1.23;;
59024;SDS011;44806;48.008;13.666;2022-07-17T13:53:20;3.50;;;1.35;;
59024;SDS011;44806;48.008;13.666;2022-07-17T13:55:47;1.83;;;1.17;;
59024;SDS011;44806;48.008;13.666;2022-07-17T13:58:14;3.55;;;1.25;;
59024;SDS011;44806;48.008;13.666;2022-07-17T14:00:42;3.60;;;1.33;;
59024;SDS011;44806;48.008;13.666;2022-07-17T14:03:09;4.05;;;1.20;;
59024;SDS011;44806;48.008;13.666;2022-07-17T14:05:37;2.55;;;1.10;;
59024;SDS011;44806;48.008;13.666;2022-07-17T14:08:04;2.53;;;1.08;;
59024;SDS011;44806;48.008;13.666;2022-07-17T14:10:32;2.53;;;1.20;;
59024;SDS011;44806;48.008;13.666;2022-07-17T14:12:59;3.45;;;1.20;;
59024;SDS011;44806;48.008;13.666;2022-07-17T14:15:27;4.35;;;1.27;;
59024;SDS011;44806;48.008;13.666;2022-07-17T14:17:54;3.17;;;1.27;;
59024;SDS011;44806;48.008;13.666;2022-07-17T14:20:21;4.70;;;1.30;;
59024;SDS011;44806;48.008;13.666;2022-07-17T14:22:49;3.70;;;1.20;;
59024;SDS011;44806;48.008;13.666;2022-07-17T14:25:17;3.60;;;1.10;;
59024;SDS011;44806;48.008;13.666;2022-07-17T14:27:44;3.53;;;1.20;;
59024;SDS011;44806;48.008;13.666;2022-07-17T14:30:11;2.97;;;1.30;;
59024;SDS011;44806;48.008;13.666;2022-07-17T14:32:38;2.88;;;1.10;;
59024;SDS011;44806;48.008;13.666;2022-07-17T14:35:06;4.22;;;1.30;;
59024;SDS011;44806;48.008;13.666;2022-07-17T14:37:34;2.80;;;1.17;;
59024;SDS011;44806;48.008;13.666;2022-07-17T14:40:03;2.38;;;1.10;;
59024;SDS011;44806;48.008;13.666;2022-07-17T14:42:31;3.15;;;1.23;;
59024;SDS011;44806;48.008;13.666;2022-07-17T14:44:58;3.88;;;1.38;;
59024;SDS011;44806;48.008;13.666;2022-07-17T14:47:26;3.17;;;1.00;;